Flight Track Log - Related Links

Times and Time Zones

All times are in EDT time to prevent confusion due to time zone crossing. See the JBU1329 flight status page for this flight to view local times or setup timezone preferences in your user account.

Time Position Orientation Groundspeed Altitude Reporting Facility
EDT Latitude Longitude Course Direction KTS MPH feet Rate Location/Type
Wed 09:20:42 AM 42.3500 -71.0167 240° Southwest 167 192 600  Level KA90
Wed 09:21:43 AM 42.3167 -70.9667 132° Southeast 215 247 2,400 2,383 Climbing KA90
Wed 09:23:00 AM 42.3499 -70.7266 172° South  Level FlightAware Approximate
Wed 09:23:03 AM 42.3244 -70.8450 85° East 260 299 6,200  Level Boston Center
Wed 09:24:00 AM 42.2612 -70.7749 228° Southwest  Level FlightAware Approximate
Wed 09:24:03 AM 42.3169 -70.7442 96° East 270 311 9,000  Level Boston Center
Wed 09:25:00 AM 42.1999 -70.8948 240° Southwest  Level FlightAware Approximate
Wed 09:25:03 AM 42.2353 -70.7322 174° South 220 253 11,800  Level Boston Center
Wed 09:26:03 AM 42.1803 -70.8150 228° Southwest 205 236 13,800 2,200 Climbing Boston Center
Wed 09:27:03 AM 42.1611 -70.9306 257° West 277 319 16,200 2,500 Climbing Boston Center
Wed 09:28:03 AM 42.1481 -71.0456 261° West 318 366 18,800 2,600 Climbing Boston Center
Wed 09:29:03 AM 42.1331 -71.1914 262° West 345 397 21,400 2,350 Climbing Boston Center
Wed 09:30:03 AM 42.1178 -71.3261 261° West 362 417 23,500 2,000 Climbing Boston Center
Wed 09:31:03 AM 42.1044 -71.4636 263° West 372 428 25,400 1,900 Climbing Boston Center
Wed 09:32:03 AM 42.0786 -71.6178 257° West 378 435 27,300 1,550 Climbing Boston Center
Wed 09:33:03 AM 42.0461 -71.7608 253° West 385 443 28,500 1,400 Climbing Boston Center
Wed 09:34:03 AM 41.9864 -71.8983 240° Southwest 413 475 30,100 1,100 Climbing Boston Center
Wed 09:35:03 AM 41.9286 -72.0383 241° Southwest 418 481 30,700 900 Climbing Boston Center
Wed 09:36:03 AM 41.8686 -72.1836 241° Southwest 439 505 31,900 650 Climbing Boston Center
Wed 09:37:03 AM 41.8106 -72.3286 242° Southwest 444 511 32,000 50 Climbing Boston Center
Wed 09:38:03 AM 41.7503 -72.4708 240° Southwest 444 511 32,000  Level Boston Center
Wed 09:39:03 AM 41.6897 -72.6153 241° Southwest 435 501 32,000  Level Boston Center
Wed 09:40:03 AM 41.6289 -72.7594 241° Southwest 441 507 32,000  Level Boston Center
Wed 09:41:03 AM 41.5719 -72.9006 242° Southwest 441 507 32,000  Level Boston Center
Wed 09:43:07 AM 41.4558 -73.1767 241° Southwest 435 501 32,000  Level New York Center
Wed 09:44:05 AM 41.3944 -73.3156 240° Southwest 435 501 32,000  Level New York Center
Wed 09:45:05 AM 41.3375 -73.4486 240° Southwest 435 501 32,000  Level New York Center
Wed 09:46:05 AM 41.2781 -73.5844 240° Southwest 430 495 32,000  Level New York Center
Wed 09:47:05 AM 41.2108 -73.6972 232° Southwest 436 502 32,000  Level New York Center
Wed 09:48:05 AM 41.1281 -73.8397 232° Southwest 447 514 32,000  Level New York Center
Wed 09:49:05 AM 41.0517 -73.9683 232° Southwest 452 520 32,000  Level New York Center
Wed 09:50:05 AM 40.9861 -74.0833 233° Southwest 452 520 32,000 -893 Level New York Center
Wed 09:51:06 AM 40.8986 -74.2247 231° Southwest 452 520 30,200 -1,750 Descending New York Center
Wed 09:52:05 AM 40.8219 -74.3469 230° Southwest 452 520 28,500 -1,100 Descending New York Center
Wed 09:53:06 AM 40.7453 -74.4742 232° Southwest 457 526 28,000 -689 Descending New York Center
Wed 09:54:07 AM 40.6683 -74.6014 231° Southwest 457 526 27,100 -958 Descending New York Center
Wed 09:55:05 AM 40.5933 -74.7256 232° Southwest 457 526 26,100 -1,008 Descending New York Center
Wed 09:56:06 AM 40.5144 -74.8411 228° Southwest 452 520 25,100 -984 Descending New York Center
Wed 09:57:07 AM 40.4333 -74.9564 227° Southwest 436 502 24,100 -1,462 Descending New York Center
Wed 09:58:05 AM 40.3542 -75.0689 227° Southwest 430 495 22,200 -1,983 Descending New York Center
Wed 09:59:05 AM 40.2794 -75.1731 227° Southwest 425 489 20,200 -1,600 Descending New York Center
Wed 10:00:05 AM 40.2025 -75.2767 226° Southwest 409 471 19,000 -595 Descending New York Center
Wed 10:01:06 AM 40.1364 -75.3703 227° Southwest 398 458 19,000  Level New York Center
Wed 10:02:06 AM 40.0550 -75.4814 226° Southwest 398 458 19,000 -446 Level New York Center
Wed 10:03:07 AM 39.9967 -75.5806 233° Southwest 393 452 18,100 -1,261 Descending New York Center
Wed 10:04:05 AM 39.9292 -75.7003 234° Southwest 387 445 16,500 -1,513 Descending New York Center
Wed 10:05:06 AM 39.8731 -75.7964 233° Southwest 376 433 15,100 -1,304 Descending New York Center
Wed 10:07:32 AM 39.7167 -76.0500 231° Southwest 353 406 12,000 -1,014 Descending Potomac TRACON
Wed 10:08:33 AM 39.6500 -76.1333 224° Southwest 353 406 11,600 -645 Descending Potomac TRACON
Wed 10:09:33 AM 39.5833 -76.2167 224° Southwest 300 345 10,700 -1,333 Descending Potomac TRACON
Wed 10:10:39 AM 39.5167 -76.2833 218° Southwest 283 326 8,800 -1,587 Descending Potomac TRACON
Wed 10:11:34 AM 39.4667 -76.3500 226° Southwest 277 319 7,500 -1,513 Descending Potomac TRACON
Wed 10:12:34 AM 39.4000 -76.4000 210° Southwest 272 313 5,900 -1,600 Descending Potomac TRACON
Wed 10:13:34 AM 39.3333 -76.4500 210° Southwest 280 322 4,300 -1,140 Descending Potomac TRACON
Wed 10:14:35 AM 39.2667 -76.4667 191° South 245 282 3,600 -645 Descending Potomac TRACON
Wed 10:15:35 AM 39.2000 -76.4833 191° South 256 295 3,000 -300 Descending Potomac TRACON
Wed 10:16:35 AM 39.1333 -76.5167 201° Southwest 245 282 3,000  Level Potomac TRACON

Login

Don't have an account? Register now (free) for customized features, flight alerts, and more!